Adrian, Oregon
Current Conditions -  °F | °C
As of 2:53 PM on Tuesday 25 Nov 2014 (Local Time) from KONO Reporting Station
Few Clouds Few Clouds  
Wind Chill:   Ceiling: Unl
Heat Index:   Visibility: 10mi
Dew Point:   Wind: 0mph
Humidity: 74%   Direction: NA
Pressure: 30.25"   Gusts: NA
Location:  43.74°N, 117.07°W
Report Text: KONO 252153Z AUTO 00000KT 10SM FEW065 07/03 A3025 RMK AO2 SLP257 T00720028
Loading
Personal Weather Stations






























Interactive Weather Map New forecast layout! Learn more

10-Day Weather Forecast

Advertisements
Track Severe Weather on mobile